sensor_id;sensor_type;location;lat;lon;timestamp;pressure;altitude;pressure_sealevel;temperature;humidity
70323;BME280;57735;56.264;43.898;2023-01-28T00:02:13;101326.13;;;-1.59;76.96
70323;BME280;57735;56.264;43.898;2023-01-28T00:04:44;101318.34;;;-1.61;76.62
70323;BME280;57735;56.264;43.898;2023-01-28T00:07:15;101332.22;;;-1.59;76.78
70323;BME280;57735;56.264;43.898;2023-01-28T00:09:46;101323.41;;;-1.56;76.66
70323;BME280;57735;56.264;43.898;2023-01-28T00:12:16;101320.69;;;-1.53;76.44
70323;BME280;57735;56.264;43.898;2023-01-28T00:14:47;101332.06;;;-1.54;76.16
70323;BME280;57735;56.264;43.898;2023-01-28T00:17:18;101328.41;;;-1.50;76.27
70323;BME280;57735;56.264;43.898;2023-01-28T00:19:49;101330.97;;;-1.49;76.34
70323;BME280;57735;56.264;43.898;2023-01-28T00:22:20;101335.41;;;-1.51;76.14
70323;BME280;57735;56.264;43.898;2023-01-28T00:24:51;101338.75;;;-1.47;76.14
70323;BME280;57735;56.264;43.898;2023-01-28T00:27:21;101343.09;;;-1.46;76.13
70323;BME280;57735;56.264;43.898;2023-01-28T00:29:52;101344.91;;;-1.48;76.19
70323;BME280;57735;56.264;43.898;2023-01-28T00:32:24;101347.47;;;-1.47;76.25
70323;BME280;57735;56.264;43.898;2023-01-28T00:34:57;101342.19;;;-1.45;76.36
70323;BME280;57735;56.264;43.898;2023-01-28T00:37:28;101346.50;;;-1.44;76.16
70323;BME280;57735;56.264;43.898;2023-01-28T00:39:58;101346.50;;;-1.44;75.96
70323;BME280;57735;56.264;43.898;2023-01-28T00:42:29;101342.22;;;-1.47;76.23
70323;BME280;57735;56.264;43.898;2023-01-28T00:45:00;101338.09;;;-1.52;76.23
70323;BME280;57735;56.264;43.898;2023-01-28T00:47:31;101340.09;;;-1.60;76.26
70323;BME280;57735;56.264;43.898;2023-01-28T00:50:02;101340.31;;;-1.66;76.58
70323;BME280;57735;56.264;43.898;2023-01-28T00:52:33;101348.16;;;-1.66;76.72
70323;BME280;57735;56.264;43.898;2023-01-28T00:55:04;101344.63;;;-1.65;76.78
70323;BME280;57735;56.264;43.898;2023-01-28T00:57:36;101336.78;;;-1.65;76.97
70323;BME280;57735;56.264;43.898;2023-01-28T01:00:07;101336.69;;;-1.62;76.79
70323;BME280;57735;56.264;43.898;2023-01-28T01:02:38;101347.00;;;-1.58;76.91
70323;BME280;57735;56.264;43.898;2023-01-28T01:05:09;101347.78;;;-1.56;76.71
70323;BME280;57735;56.264;43.898;2023-01-28T01:07:40;101343.31;;;-1.52;76.70
70323;BME280;57735;56.264;43.898;2023-01-28T01:10:15;101346.13;;;-1.58;76.39
70323;BME280;57735;56.264;43.898;2023-01-28T01:12:48;101346.25;;;-1.61;76.58
70323;BME280;57735;56.264;43.898;2023-01-28T01:15:19;101339.34;;;-1.64;76.60
70323;BME280;57735;56.264;43.898;2023-01-28T01:17:50;101354.28;;;-1.67;76.67
70323;BME280;57735;56.264;43.898;2023-01-28T01:20:23;101352.47;;;-1.65;76.89
70323;BME280;57735;56.264;43.898;2023-01-28T01:22:57;101346.34;;;-1.64;76.69
70323;BME280;57735;56.264;43.898;2023-01-28T01:25:28;101351.50;;;-1.63;76.74
70323;BME280;57735;56.264;43.898;2023-01-28T01:27:59;101334.97;;;-1.63;76.97
70323;BME280;57735;56.264;43.898;2023-01-28T01:30:30;101348.75;;;-1.58;77.08
70323;BME280;57735;56.264;43.898;2023-01-28T01:33:00;101339.91;;;-1.54;76.84
70323;BME280;57735;56.264;43.898;2023-01-28T01:35:31;101346.84;;;-1.53;76.66
70323;BME280;57735;56.264;43.898;2023-01-28T01:38:02;101342.34;;;-1.50;76.79
70323;BME280;57735;56.264;43.898;2023-01-28T01:40:33;101347.50;;;-1.48;76.61
70323;BME280;57735;56.264;43.898;2023-01-28T01:43:16;101350.88;;;-1.45;76.69
70323;BME280;57735;56.264;43.898;2023-01-28T01:45:50;101356.06;;;-1.43;76.50
70323;BME280;57735;56.264;43.898;2023-01-28T01:48:30;101351.69;;;-1.43;76.46
70323;BME280;57735;56.264;43.898;2023-01-28T01:51:13;101356.00;;;-1.42;76.43
70323;BME280;57735;56.264;43.898;2023-01-28T01:53:48;101362.91;;;-1.39;76.17
70323;BME280;57735;56.264;43.898;2023-01-28T01:56:23;101362.78;;;-1.36;76.27
70323;BME280;57735;56.264;43.898;2023-01-28T01:58:56;101365.28;;;-1.33;76.20
70323;BME280;57735;56.264;43.898;2023-01-28T02:01:29;101377.44;;;-1.32;76.09
70323;BME280;57735;56.264;43.898;2023-01-28T02:04:06;101371.31;;;-1.31;76.08
70323;BME280;57735;56.264;43.898;2023-01-28T02:06:38;101374.78;;;-1.30;76.04
70323;BME280;57735;56.264;43.898;2023-01-28T02:09:25;101370.44;;;-1.31;76.11
70323;BME280;57735;56.264;43.898;2023-01-28T02:12:02;101374.03;;;-1.34;75.74
70323;BME280;57735;56.264;43.898;2023-01-28T02:14:41;101368.03;;;-1.36;76.04
70323;BME280;57735;56.264;43.898;2023-01-28T02:17:14;101379.25;;;-1.34;76.08
70323;BME280;57735;56.264;43.898;2023-01-28T02:20:05;101376.88;;;-1.40;75.92
70323;BME280;57735;56.264;43.898;2023-01-28T02:31:16;101382.91;;;-1.38;75.88
70323;BME280;57735;56.264;43.898;2023-01-28T02:34:01;101375.28;;;-1.44;75.83
70323;BME280;57735;56.264;43.898;2023-01-28T02:36:48;101394.47;;;-1.45;76.06
70323;BME280;57735;56.264;43.898;2023-01-28T02:39:30;101385.78;;;-1.46;75.98
70323;BME280;57735;56.264;43.898;2023-01-28T02:42:17;101383.16;;;-1.46;76.15
70323;BME280;57735;56.264;43.898;2023-01-28T02:44:49;101387.53;;;-1.46;75.95
70323;BME280;57735;56.264;43.898;2023-01-28T02:47:22;101392.09;;;-1.51;75.89
70323;BME280;57735;56.264;43.898;2023-01-28T02:50:14;101388.66;;;-1.53;76.05
70323;BME280;57735;56.264;43.898;2023-01-28T02:53:02;101396.56;;;-1.55;76.19
70323;BME280;57735;56.264;43.898;2023-01-28T02:58:58;101399.84;;;-1.50;76.28
70323;BME280;57735;56.264;43.898;2023-01-28T03:01:36;101398.03;;;-1.48;75.97
70323;BME280;57735;56.264;43.898;2023-01-28T03:04:22;101402.47;;;-1.50;75.86
70323;BME280;57735;56.264;43.898;2023-01-28T03:07:01;101396.34;;;-1.49;75.95
70323;BME280;57735;56.264;43.898;2023-01-28T03:09:38;101391.91;;;-1.47;76.21
70323;BME280;57735;56.264;43.898;2023-01-28T03:12:17;101404.84;;;-1.42;76.17
70323;BME280;57735;56.264;43.898;2023-01-28T03:15:13;101406.53;;;-1.41;75.90
70323;BME280;57735;56.264;43.898;2023-01-28T03:21:03;101406.59;;;-1.43;75.79
70323;BME280;57735;56.264;43.898;2023-01-28T03:24:17;101401.38;;;-1.43;75.73
70323;BME280;57735;56.264;43.898;2023-01-28T03:27:13;101406.59;;;-1.43;75.36
70323;BME280;57735;56.264;43.898;2023-01-28T03:30:10;101416.09;;;-1.40;75.36
70323;BME280;57735;56.264;43.898;2023-01-28T03:33:03;101407.25;;;-1.36;75.16
70323;BME280;57735;56.264;43.898;2023-01-28T03:35:53;101403.72;;;-1.35;75.23
70323;BME280;57735;56.264;43.898;2023-01-28T03:38:43;101402.06;;;-1.37;74.56
70323;BME280;57735;56.264;43.898;2023-01-28T03:41:25;101396.84;;;-1.37;74.61
70323;BME280;57735;56.264;43.898;2023-01-28T03:43:56;101407.25;;;-1.36;74.76
70323;BME280;57735;56.264;43.898;2023-01-28T03:46:27;101402.16;;;-1.41;74.34
70323;BME280;57735;56.264;43.898;2023-01-28T03:48:58;101404.88;;;-1.44;74.04
70323;BME280;57735;56.264;43.898;2023-01-28T03:51:29;101409.25;;;-1.44;74.31
70323;BME280;57735;56.264;43.898;2023-01-28T03:53:59;101400.56;;;-1.45;74.08
70323;BME280;57735;56.264;43.898;2023-01-28T03:56:30;101405.94;;;-1.49;74.10
70323;BME280;57735;56.264;43.898;2023-01-28T03:59:09;101419.13;;;-1.52;74.19
70323;BME280;57735;56.264;43.898;2023-01-28T04:01:40;101421.91;;;-1.57;73.87
70323;BME280;57735;56.264;43.898;2023-01-28T04:04:11;101427.28;;;-1.61;74.02
70323;BME280;57735;56.264;43.898;2023-01-28T04:06:53;101422.13;;;-1.64;74.15
70323;BME280;57735;56.264;43.898;2023-01-28T04:09:24;101417.00;;;-1.67;74.12
70323;BME280;57735;56.264;43.898;2023-01-28T04:11:55;101419.69;;;-1.69;74.29
70323;BME280;57735;56.264;43.898;2023-01-28T04:14:26;101431.00;;;-1.68;73.89
70323;BME280;57735;56.264;43.898;2023-01-28T04:16:57;101434.53;;;-1.69;74.04
70323;BME280;57735;56.264;43.898;2023-01-28T04:19:28;101432.00;;;-1.72;74.00
70323;BME280;57735;56.264;43.898;2023-01-28T04:22:01;101427.63;;;-1.72;73.89
70323;BME280;57735;56.264;43.898;2023-01-28T04:24:32;101435.31;;;-1.67;73.88
70323;BME280;57735;56.264;43.898;2023-01-28T04:27:02;101436.97;;;-1.65;73.87
70323;BME280;57735;56.264;43.898;2023-01-28T04:29:33;101434.41;;;-1.66;73.61
70323;BME280;57735;56.264;43.898;2023-01-28T04:32:04;101433.53;;;-1.67;73.37
70323;BME280;57735;56.264;43.898;2023-01-28T04:34:34;101433.53;;;-1.67;73.51
70323;BME280;57735;56.264;43.898;2023-01-28T04:37:05;101443.94;;;-1.65;73.34
70323;BME280;57735;56.264;43.898;2023-01-28T04:39:36;101433.53;;;-1.67;73.23
70323;BME280;57735;56.264;43.898;2023-01-28T04:42:07;101437.00;;;-1.66;73.20
70323;BME280;57735;56.264;43.898;2023-01-28T04:44:37;101437.00;;;-1.66;72.98
70323;BME280;57735;56.264;43.898;2023-01-28T04:47:08;101450.22;;;-1.69;72.99
70323;BME280;57735;56.264;43.898;2023-01-28T04:49:39;101453.59;;;-1.67;72.87
70323;BME280;57735;56.264;43.898;2023-01-28T04:52:10;101453.72;;;-1.70;72.75
70323;BME280;57735;56.264;43.898;2023-01-28T04:54:40;101448.50;;;-1.70;72.54
70323;BME280;57735;56.264;43.898;2023-01-28T04:57:11;101452.25;;;-1.79;72.09
70323;BME280;57735;56.264;43.898;2023-01-28T04:59:42;101454.94;;;-1.82;72.07
70323;BME280;57735;56.264;43.898;2023-01-28T05:02:13;101461.16;;;-1.85;72.00
70323;BME280;57735;56.264;43.898;2023-01-28T05:04:43;101466.38;;;-1.85;72.05
70323;BME280;57735;56.264;43.898;2023-01-28T05:07:14;101461.97;;;-1.84;72.03
70323;BME280;57735;56.264;43.898;2023-01-28T05:09:45;101456.75;;;-1.84;71.76
70323;BME280;57735;56.264;43.898;2023-01-28T05:12:16;101467.16;;;-1.83;71.70
70323;BME280;57735;56.264;43.898;2023-01-28T05:14:46;101459.44;;;-1.86;71.87
70323;BME280;57735;56.264;43.898;2023-01-28T05:17:17;101468.88;;;-1.82;72.10
70323;BME280;57735;56.264;43.898;2023-01-28T05:19:48;101461.88;;;-1.81;71.87
70323;BME280;57735;56.264;43.898;2023-01-28T05:22:19;101471.47;;;-1.82;71.49
70323;BME280;57735;56.264;43.898;2023-01-28T05:24:50;101470.75;;;-1.85;71.46
70323;BME280;57735;56.264;43.898;2023-01-28T05:27:20;101463.81;;;-1.86;71.31
70323;BME280;57735;56.264;43.898;2023-01-28T05:29:51;101469.97;;;-1.89;71.65
70323;BME280;57735;56.264;43.898;2023-01-28T05:32:25;101470.13;;;-1.93;71.51
70323;BME280;57735;56.264;43.898;2023-01-28T05:34:56;101474.50;;;-1.94;71.43
70323;BME280;57735;56.264;43.898;2023-01-28T05:37:26;101484.91;;;-1.92;71.02
70323;BME280;57735;56.264;43.898;2023-01-28T05:39:57;101492.09;;;-2.00;70.71
70323;BME280;57735;56.264;43.898;2023-01-28T05:42:28;101482.75;;;-2.07;70.80
70323;BME280;57735;56.264;43.898;2023-01-28T05:44:59;101484.50;;;-2.08;70.74
70323;BME280;57735;56.264;43.898;2023-01-28T05:47:34;101489.59;;;-2.03;70.84
70323;BME280;57735;56.264;43.898;2023-01-28T05:50:06;101493.03;;;-2.01;70.62
70323;BME280;57735;56.264;43.898;2023-01-28T05:52:37;101490.53;;;-2.06;70.25
70323;BME280;57735;56.264;43.898;2023-01-28T05:55:09;101485.44;;;-2.11;70.08
70323;BME280;57735;56.264;43.898;2023-01-28T05:57:40;101503.78;;;-2.12;70.15
70323;BME280;57735;56.264;43.898;2023-01-28T06:00:11;101509.94;;;-2.15;70.02
70323;BME280;57735;56.264;43.898;2023-01-28T06:02:42;101508.16;;;-2.13;70.07
70323;BME280;57735;56.264;43.898;2023-01-28T06:05:13;101503.78;;;-2.12;69.91
70323;BME280;57735;56.264;43.898;2023-01-28T06:07:45;101505.50;;;-2.11;70.18
70323;BME280;57735;56.264;43.898;2023-01-28T06:10:16;101509.09;;;-2.15;69.74
70323;BME280;57735;56.264;43.898;2023-01-28T06:12:47;101510.09;;;-2.19;69.83
70323;BME280;57735;56.264;43.898;2023-01-28T06:15:18;101502.16;;;-2.16;70.08
70323;BME280;57735;56.264;43.898;2023-01-28T06:17:48;101505.41;;;-2.08;70.05
70323;BME280;57735;56.264;43.898;2023-01-28T06:20:19;101504.31;;;-2.01;69.91
70323;BME280;57735;56.264;43.898;2023-01-28T06:22:51;101508.69;;;-2.01;69.39
70323;BME280;57735;56.264;43.898;2023-01-28T06:25:21;101505.22;;;-2.02;69.23
70323;BME280;57735;56.264;43.898;2023-01-28T06:27:52;101507.72;;;-1.99;69.66
70323;BME280;57735;56.264;43.898;2023-01-28T06:30:26;101521.50;;;-1.94;69.45
70323;BME280;57735;56.264;43.898;2023-01-28T06:32:57;101516.28;;;-1.94;69.12
70323;BME280;57735;56.264;43.898;2023-01-28T06:35:28;101530.97;;;-1.90;69.23
70323;BME280;57735;56.264;43.898;2023-01-28T06:37:59;101523.16;;;-1.90;69.16
70323;BME280;57735;56.264;43.898;2023-01-28T06:40:32;101533.63;;;-1.91;69.32
70323;BME280;57735;56.264;43.898;2023-01-28T06:43:04;101534.50;;;-1.91;69.38
70323;BME280;57735;56.264;43.898;2023-01-28T06:45:35;101529.91;;;-1.84;69.42
70323;BME280;57735;56.264;43.898;2023-01-28T06:48:05;101524.69;;;-1.84;69.35
70323;BME280;57735;56.264;43.898;2023-01-28T06:50:36;101532.59;;;-1.86;69.10
70323;BME280;57735;56.264;43.898;2023-01-28T06:53:07;101532.69;;;-1.89;69.43
70323;BME280;57735;56.264;43.898;2023-01-28T06:55:38;101538.88;;;-1.91;69.30
70323;BME280;57735;56.264;43.898;2023-01-28T06:58:09;101528.31;;;-1.88;69.43
70323;BME280;57735;56.264;43.898;2023-01-28T07:00:39;101535.22;;;-1.86;69.29
70323;BME280;57735;56.264;43.898;2023-01-28T07:03:10;101527.25;;;-1.83;69.44
70323;BME280;57735;56.264;43.898;2023-01-28T07:05:41;101533.25;;;-1.79;69.07
70323;BME280;57735;56.264;43.898;2023-01-28T07:08:12;101544.00;;;-1.88;68.98
70323;BME280;57735;56.264;43.898;2023-01-28T07:10:43;101546.56;;;-1.87;69.36
70323;BME280;57735;56.264;43.898;2023-01-28T07:13:14;101554.44;;;-1.88;69.51
70323;BME280;57735;56.264;43.898;2023-01-28T07:15:44;101545.81;;;-1.90;69.26
70323;BME280;57735;56.264;43.898;2023-01-28T07:18:15;101551.06;;;-1.92;69.47
70323;BME280;57735;56.264;43.898;2023-01-28T07:20:46;101548.47;;;-1.92;69.31
70323;BME280;57735;56.264;43.898;2023-01-28T07:23:17;101569.41;;;-1.93;69.22
70323;BME280;57735;56.264;43.898;2023-01-28T07:25:50;101559.28;;;-2.04;68.89
70323;BME280;57735;56.264;43.898;2023-01-28T07:28:20;101562.88;;;-2.08;69.38
70323;BME280;57735;56.264;43.898;2023-01-28T07:30:51;101568.94;;;-2.07;69.47
70323;BME280;57735;56.264;43.898;2023-01-28T07:33:24;101567.94;;;-2.02;69.46
70323;BME280;57735;56.264;43.898;2023-01-28T07:35:55;101568.72;;;-2.00;69.14
70323;BME280;57735;56.264;43.898;2023-01-28T07:38:26;101569.53;;;-1.98;69.14
70323;BME280;57735;56.264;43.898;2023-01-28T07:40:57;101575.56;;;-1.96;69.39
70323;BME280;57735;56.264;43.898;2023-01-28T07:43:27;101572.78;;;-1.90;69.06
70323;BME280;57735;56.264;43.898;2023-01-28T07:46:01;101583.13;;;-1.85;68.96
70323;BME280;57735;56.264;43.898;2023-01-28T07:48:32;101591.81;;;-1.85;68.71
70323;BME280;57735;56.264;43.898;2023-01-28T07:51:07;101579.53;;;-1.83;68.82
70323;BME280;57735;56.264;43.898;2023-01-28T07:53:45;101583.03;;;-1.84;68.71
70323;BME280;57735;56.264;43.898;2023-01-28T07:56:16;101585.53;;;-1.79;68.74
70323;BME280;57735;56.264;43.898;2023-01-28T07:58:49;101580.34;;;-1.81;68.73
70323;BME280;57735;56.264;43.898;2023-01-28T08:01:20;101584.75;;;-1.83;68.59
70323;BME280;57735;56.264;43.898;2023-01-28T08:03:51;101594.25;;;-1.80;68.69
70323;BME280;57735;56.264;43.898;2023-01-28T08:06:21;101584.75;;;-1.83;68.39
70323;BME280;57735;56.264;43.898;2023-01-28T08:08:52;101586.38;;;-1.79;68.80
70323;BME280;57735;56.264;43.898;2023-01-28T08:11:23;101596.84;;;-1.79;68.27
70323;BME280;57735;56.264;43.898;2023-01-28T08:13:53;101588.19;;;-1.81;68.54
70323;BME280;57735;56.264;43.898;2023-01-28T08:16:24;101591.53;;;-1.76;68.23
70323;BME280;57735;56.264;43.898;2023-01-28T08:18:56;101582.06;;;-1.80;68.52
70323;BME280;57735;56.264;43.898;2023-01-28T08:21:29;101582.69;;;-1.71;68.46
70323;BME280;57735;56.264;43.898;2023-01-28T08:24:00;101581.59;;;-1.64;68.35
70323;BME280;57735;56.264;43.898;2023-01-28T08:26:30;101587.72;;;-1.65;68.21
70323;BME280;57735;56.264;43.898;2023-01-28T08:29:01;101570.31;;;-1.66;68.05
70323;BME280;57735;56.264;43.898;2023-01-28T08:31:32;101578.97;;;-1.64;67.88
70323;BME280;57735;56.264;43.898;2023-01-28T08:34:03;101577.09;;;-1.59;68.01
70323;BME280;57735;56.264;43.898;2023-01-28T08:36:33;101573.56;;;-1.58;67.70
70323;BME280;57735;56.264;43.898;2023-01-28T08:39:04;101569.97;;;-1.54;67.87
70323;BME280;57735;56.264;43.898;2023-01-28T08:41:35;101578.50;;;-1.49;68.05
70323;BME280;57735;56.264;43.898;2023-01-28T08:44:06;101573.25;;;-1.49;67.75
70323;BME280;57735;56.264;43.898;2023-01-28T08:46:36;101575.09;;;-1.51;67.67
70323;BME280;57735;56.264;43.898;2023-01-28T08:49:10;101574.44;;;-1.58;67.63
70323;BME280;57735;56.264;43.898;2023-01-28T08:51:41;101573.44;;;-1.54;67.77
70323;BME280;57735;56.264;43.898;2023-01-28T08:54:14;101575.84;;;-1.48;67.47
70323;BME280;57735;56.264;43.898;2023-01-28T08:56:45;101570.50;;;-1.45;67.04
70323;BME280;57735;56.264;43.898;2023-01-28T08:59:18;101573.22;;;-1.48;67.15
70323;BME280;57735;56.264;43.898;2023-01-28T09:01:48;101576.78;;;-1.50;67.29
70323;BME280;57735;56.264;43.898;2023-01-28T09:04:19;101578.50;;;-1.49;67.29
70323;BME280;57735;56.264;43.898;2023-01-28T09:06:50;101566.44;;;-1.53;67.22
70323;BME280;57735;56.264;43.898;2023-01-28T09:09:24;101564.72;;;-1.54;67.32
70323;BME280;57735;56.264;43.898;2023-01-28T09:11:54;101562.06;;;-1.53;67.37
70323;BME280;57735;56.264;43.898;2023-01-28T09:14:25;101562.13;;;-1.54;67.54
70323;BME280;57735;56.264;43.898;2023-01-28T09:16:58;101564.81;;;-1.57;67.34
70323;BME280;57735;56.264;43.898;2023-01-28T09:19:29;101568.94;;;-1.50;67.61
70323;BME280;57735;56.264;43.898;2023-01-28T09:22:02;101566.31;;;-1.50;67.25
70323;BME280;57735;56.264;43.898;2023-01-28T09:24:33;101574.34;;;-1.55;67.27
70323;BME280;57735;56.264;43.898;2023-01-28T09:27:04;101572.66;;;-1.57;66.90
70323;BME280;57735;56.264;43.898;2023-01-28T09:29:35;101567.47;;;-1.59;66.63
70323;BME280;57735;56.264;43.898;2023-01-28T09:32:07;101565.78;;;-1.60;66.96
70323;BME280;57735;56.264;43.898;2023-01-28T09:34:40;101567.44;;;-1.57;66.85
70323;BME280;57735;56.264;43.898;2023-01-28T09:37:13;101556.16;;;-1.59;66.49
70323;BME280;57735;56.264;43.898;2023-01-28T09:39:44;101563.84;;;-1.53;66.61
70323;BME280;57735;56.264;43.898;2023-01-28T09:45:15;101556.94;;;-1.56;66.76
70323;BME280;57735;56.264;43.898;2023-01-28T09:47:50;101557.75;;;-1.54;66.63
70323;BME280;57735;56.264;43.898;2023-01-28T09:50:31;101557.06;;;-1.60;66.12
70323;BME280;57735;56.264;43.898;2023-01-28T09:53:15;101565.94;;;-1.66;66.28
70323;BME280;57735;56.264;43.898;2023-01-28T09:56:11;101566.06;;;-1.69;66.47
70323;BME280;57735;56.264;43.898;2023-01-28T09:58:43;101560.72;;;-1.66;66.34
70323;BME280;57735;56.264;43.898;2023-01-28T10:01:34;101559.69;;;-1.60;66.15
70323;BME280;57735;56.264;43.898;2023-01-28T10:07:01;101564.53;;;-1.76;65.97
70323;BME280;57735;56.264;43.898;2023-01-28T10:15:33;101558.19;;;-1.97;66.44
70323;BME280;57735;56.264;43.898;2023-01-28T10:18:10;101560.22;;;-2.06;66.62
70323;BME280;57735;56.264;43.898;2023-01-28T10:20:46;101556.00;;;-2.12;67.16
70323;BME280;57735;56.264;43.898;2023-01-28T10:26:22;101560.44;;;-2.14;66.75
70323;BME280;57735;56.264;43.898;2023-01-28T10:28:56;101552.78;;;-2.20;66.74
70323;BME280;57735;56.264;43.898;2023-01-28T10:31:31;101562.53;;;-2.27;67.01
70323;BME280;57735;56.264;43.898;2023-01-28T10:34:04;101550.66;;;-2.37;67.17
70323;BME280;57735;56.264;43.898;2023-01-28T10:36:35;101559.63;;;-2.47;67.21
70323;BME280;57735;56.264;43.898;2023-01-28T10:39:08;101555.53;;;-2.56;67.24
70323;BME280;57735;56.264;43.898;2023-01-28T10:41:40;101544.34;;;-2.61;67.38
70323;BME280;57735;56.264;43.898;2023-01-28T10:44:37;101540.69;;;-2.54;67.70
70323;BME280;57735;56.264;43.898;2023-01-28T10:47:14;101540.50;;;-2.48;67.34
70323;BME280;57735;56.264;43.898;2023-01-28T10:49:49;101536.94;;;-2.45;67.17
70323;BME280;57735;56.264;43.898;2023-01-28T10:52:22;101547.28;;;-2.40;67.48
70323;BME280;57735;56.264;43.898;2023-01-28T10:55:05;101540.34;;;-2.41;67.42
70323;BME280;57735;56.264;43.898;2023-01-28T10:57:40;101543.03;;;-2.44;67.18
70323;BME280;57735;56.264;43.898;2023-01-28T11:00:22;101530.94;;;-2.49;66.94
70323;BME280;57735;56.264;43.898;2023-01-28T11:02:55;101536.09;;;-2.46;67.27
70323;BME280;57735;56.264;43.898;2023-01-28T11:05:29;101537.84;;;-2.46;66.95
70323;BME280;57735;56.264;43.898;2023-01-28T11:08:13;101532.66;;;-2.48;66.62
70323;BME280;57735;56.264;43.898;2023-01-28T11:10:46;101534.38;;;-2.47;66.48
70323;BME280;57735;56.264;43.898;2023-01-28T11:13:19;101537.81;;;-2.44;66.30
70323;BME280;57735;56.264;43.898;2023-01-28T11:15:51;101533.22;;;-2.36;66.07
70323;BME280;57735;56.264;43.898;2023-01-28T11:18:25;101529.22;;;-2.50;66.11
70323;BME280;57735;56.264;43.898;2023-01-28T11:20:59;101531.88;;;-2.51;65.94
70323;BME280;57735;56.264;43.898;2023-01-28T11:23:48;101537.88;;;-2.48;66.44
70323;BME280;57735;56.264;43.898;2023-01-28T11:26:24;101540.50;;;-2.48;65.97
70323;BME280;57735;56.264;43.898;2023-01-28T11:28:56;101535.22;;;-2.46;65.70
70323;BME280;57735;56.264;43.898;2023-01-28T11:31:27;101525.66;;;-2.46;65.80
70323;BME280;57735;56.264;43.898;2023-01-28T11:33:59;101522.88;;;-2.39;65.81
70323;BME280;57735;56.264;43.898;2023-01-28T11:36:33;101529.63;;;-2.32;65.76
70323;BME280;57735;56.264;43.898;2023-01-28T11:39:23;101541.94;;;-2.36;65.64
70323;BME280;57735;56.264;43.898;2023-01-28T11:42:15;101533.13;;;-2.33;65.80
70323;BME280;57735;56.264;43.898;2023-01-28T11:44:49;101539.25;;;-2.34;65.65
70323;BME280;57735;56.264;43.898;2023-01-28T11:50:17;101540.66;;;-2.23;65.23
70323;BME280;57735;56.264;43.898;2023-01-28T12:05:39;101545.09;;;-2.56;65.09
70323;BME280;57735;56.264;43.898;2023-01-28T12:14:47;101533.44;;;-2.75;65.91
70323;BME280;57735;56.264;43.898;2023-01-28T12:26:04;101522.72;;;-2.66;66.09
70323;BME280;57735;56.264;43.898;2023-01-28T12:37:58;101514.25;;;-2.74;65.87
70323;BME280;57735;56.264;43.898;2023-01-28T12:40:49;101526.66;;;-2.82;66.10
70323;BME280;57735;56.264;43.898;2023-01-28T12:46:44;101525.19;;;-2.92;66.80
70323;BME280;57735;56.264;43.898;2023-01-28T12:52:23;101511.47;;;-3.00;66.85
70323;BME280;57735;56.264;43.898;2023-01-28T12:55:19;101519.22;;;-2.97;67.02
70323;BME280;57735;56.264;43.898;2023-01-28T12:57:57;101521.75;;;-2.94;66.94
70323;BME280;57735;56.264;43.898;2023-01-28T13:00:33;101512.19;;;-2.94;66.55
70323;BME280;57735;56.264;43.898;2023-01-28T13:03:25;101506.88;;;-2.91;67.04
70323;BME280;57735;56.264;43.898;2023-01-28T13:06:11;101504.25;;;-2.89;67.14
70323;BME280;57735;56.264;43.898;2023-01-28T13:08:47;101508.50;;;-2.85;66.84
70323;BME280;57735;56.264;43.898;2023-01-28T13:11:19;101508.38;;;-2.82;66.81
70323;BME280;57735;56.264;43.898;2023-01-28T13:13:50;101501.41;;;-2.82;66.67
70323;BME280;57735;56.264;43.898;2023-01-28T13:16:21;101503.91;;;-2.77;66.79
70323;BME280;57735;56.264;43.898;2023-01-28T13:18:51;101507.34;;;-2.75;66.61
70323;BME280;57735;56.264;43.898;2023-01-28T13:24:06;101496.97;;;-2.78;66.76
70323;BME280;57735;56.264;43.898;2023-01-28T13:26:52;101503.19;;;-2.84;66.93
70323;BME280;57735;56.264;43.898;2023-01-28T13:32:00;101491.50;;;-3.01;67.19
70323;BME280;57735;56.264;43.898;2023-01-28T13:34:40;101495.75;;;-2.97;67.20
70323;BME280;57735;56.264;43.898;2023-01-28T13:37:31;101492.31;;;-2.99;67.21
70323;BME280;57735;56.264;43.898;2023-01-28T13:42:43;101486.19;;;-2.97;67.09
70323;BME280;57735;56.264;43.898;2023-01-28T13:47:50;101486.97;;;-2.93;67.13
70323;BME280;57735;56.264;43.898;2023-01-28T13:50:24;101479.94;;;-2.91;66.71
70323;BME280;57735;56.264;43.898;2023-01-28T13:53:20;101477.38;;;-2.93;66.52
70323;BME280;57735;56.264;43.898;2023-01-28T13:55:56;101474.78;;;-2.93;66.69
70323;BME280;57735;56.264;43.898;2023-01-28T13:58:52;101472.94;;;-2.89;67.14
70323;BME280;57735;56.264;43.898;2023-01-28T14:07:02;101477.31;;;-2.90;67.32
70323;BME280;57735;56.264;43.898;2023-01-28T14:17:42;101484.66;;;-2.73;67.09
70323;BME280;57735;56.264;43.898;2023-01-28T14:20:19;101472.47;;;-2.72;67.00
70323;BME280;57735;56.264;43.898;2023-01-28T14:23:01;101475.88;;;-2.69;67.10
70323;BME280;57735;56.264;43.898;2023-01-28T14:31:21;101467.34;;;-2.75;66.47
70323;BME280;57735;56.264;43.898;2023-01-28T14:34:21;101472.69;;;-2.80;66.98
70323;BME280;57735;56.264;43.898;2023-01-28T14:36:50;101470.88;;;-2.78;66.56
70323;BME280;57735;56.264;43.898;2023-01-28T14:39:29;101467.38;;;-2.77;66.51
70323;BME280;57735;56.264;43.898;2023-01-28T14:42:01;101469.09;;;-2.76;66.86
70323;BME280;57735;56.264;43.898;2023-01-28T14:44:35;101464.72;;;-2.75;66.68
70323;BME280;57735;56.264;43.898;2023-01-28T14:47:37;101467.47;;;-2.80;66.67
70323;BME280;57735;56.264;43.898;2023-01-28T14:50:52;101466.63;;;-2.82;66.83
70323;BME280;57735;56.264;43.898;2023-01-28T14:53:55;101459.56;;;-2.77;67.13
70323;BME280;57735;56.264;43.898;2023-01-28T14:59:55;101444.78;;;-2.78;66.77
70323;BME280;57735;56.264;43.898;2023-01-28T15:02:30;101452.66;;;-2.79;66.90
70323;BME280;57735;56.264;43.898;2023-01-28T15:05:09;101447.44;;;-2.79;66.92
70323;BME280;57735;56.264;43.898;2023-01-28T15:07:47;101439.66;;;-2.81;66.92
70323;BME280;57735;56.264;43.898;2023-01-28T15:10:24;101444.78;;;-2.78;67.13